sensor_id;sensor_type;location;lat;lon;timestamp;temperature;humidity
837;DHT22;400;53.550;9.932;2024-02-26T00:00:10;7.80;1.00
837;DHT22;400;53.550;9.932;2024-02-26T00:02:37;7.80;1.00
837;DHT22;400;53.550;9.932;2024-02-26T00:05:07;7.70;1.00
837;DHT22;400;53.550;9.932;2024-02-26T00:07:34;7.70;1.00
837;DHT22;400;53.550;9.932;2024-02-26T00:10:01;7.70;1.00
837;DHT22;400;53.550;9.932;2024-02-26T00:12:29;7.70;1.00
837;DHT22;400;53.550;9.932;2024-02-26T00:14:56;7.70;1.00
837;DHT22;400;53.550;9.932;2024-02-26T00:17:23;7.70;1.00
837;DHT22;400;53.550;9.932;2024-02-26T00:19:51;7.70;1.00
837;DHT22;400;53.550;9.932;2024-02-26T00:22:19;7.60;1.00
837;DHT22;400;53.550;9.932;2024-02-26T00:24:47;7.70;1.00
837;DHT22;400;53.550;9.932;2024-02-26T00:27:14;7.60;1.00
837;DHT22;400;53.550;9.932;2024-02-26T00:29:41;7.60;1.00
837;DHT22;400;53.550;9.932;2024-02-26T00:32:08;7.60;1.00
837;DHT22;400;53.550;9.932;2024-02-26T00:34:35;7.60;1.00
837;DHT22;400;53.550;9.932;2024-02-26T00:37:02;7.60;1.00
837;DHT22;400;53.550;9.932;2024-02-26T00:39:30;7.60;1.00
837;DHT22;400;53.550;9.932;2024-02-26T00:41:57;7.50;1.00
837;DHT22;400;53.550;9.932;2024-02-26T00:44:24;7.50;1.00
837;DHT22;400;53.550;9.932;2024-02-26T00:46:51;7.50;1.00
837;DHT22;400;53.550;9.932;2024-02-26T00:49:18;7.50;1.00
837;DHT22;400;53.550;9.932;2024-02-26T00:51:45;7.50;1.00
837;DHT22;400;53.550;9.932;2024-02-26T00:54:14;7.50;1.00
837;DHT22;400;53.550;9.932;2024-02-26T00:56:43;7.50;1.00
837;DHT22;400;53.550;9.932;2024-02-26T00:59:10;7.40;1.00
837;DHT22;400;53.550;9.932;2024-02-26T01:01:37;7.40;1.00
837;DHT22;400;53.550;9.932;2024-02-26T01:04:04;7.30;1.00
837;DHT22;400;53.550;9.932;2024-02-26T01:06:31;7.30;1.00
837;DHT22;400;53.550;9.932;2024-02-26T01:08:58;7.30;1.00
837;DHT22;400;53.550;9.932;2024-02-26T01:11:24;7.30;1.00
837;DHT22;400;53.550;9.932;2024-02-26T01:13:56;7.30;1.00
837;DHT22;400;53.550;9.932;2024-02-26T01:16:23;7.30;1.00
837;DHT22;400;53.550;9.932;2024-02-26T01:18:50;7.20;1.00
837;DHT22;400;53.550;9.932;2024-02-26T01:21:17;7.20;1.00
837;DHT22;400;53.550;9.932;2024-02-26T01:23:43;7.20;1.00
837;DHT22;400;53.550;9.932;2024-02-26T01:26:10;7.20;1.00
837;DHT22;400;53.550;9.932;2024-02-26T01:28:37;7.20;1.00
837;DHT22;400;53.550;9.932;2024-02-26T01:31:05;7.20;1.00
837;DHT22;400;53.550;9.932;2024-02-26T01:33:34;7.20;1.00
837;DHT22;400;53.550;9.932;2024-02-26T01:36:01;7.10;1.00
837;DHT22;400;53.550;9.932;2024-02-26T01:38:28;7.10;1.00
837;DHT22;400;53.550;9.932;2024-02-26T01:40:55;7.10;1.00
837;DHT22;400;53.550;9.932;2024-02-26T01:43:22;7.10;1.00
837;DHT22;400;53.550;9.932;2024-02-26T01:45:48;7.10;1.00
837;DHT22;400;53.550;9.932;2024-02-26T01:48:17;7.00;1.00
837;DHT22;400;53.550;9.932;2024-02-26T01:50:43;7.00;1.00
837;DHT22;400;53.550;9.932;2024-02-26T01:53:10;7.00;1.00
837;DHT22;400;53.550;9.932;2024-02-26T01:55:40;6.90;1.00
837;DHT22;400;53.550;9.932;2024-02-26T01:58:12;6.90;1.00
837;DHT22;400;53.550;9.932;2024-02-26T02:00:42;6.90;1.00
837;DHT22;400;53.550;9.932;2024-02-26T02:03:09;6.90;1.00
837;DHT22;400;53.550;9.932;2024-02-26T02:05:37;6.80;1.00
837;DHT22;400;53.550;9.932;2024-02-26T02:08:07;6.80;1.00
837;DHT22;400;53.550;9.932;2024-02-26T02:10:34;6.70;1.00
837;DHT22;400;53.550;9.932;2024-02-26T02:13:01;6.70;1.00
837;DHT22;400;53.550;9.932;2024-02-26T02:15:29;6.70;1.00
837;DHT22;400;53.550;9.932;2024-02-26T02:17:56;6.60;1.00
837;DHT22;400;53.550;9.932;2024-02-26T02:20:26;6.60;1.00
837;DHT22;400;53.550;9.932;2024-02-26T02:22:58;6.50;1.00
837;DHT22;400;53.550;9.932;2024-02-26T02:25:24;6.40;1.00
837;DHT22;400;53.550;9.932;2024-02-26T02:27:52;6.40;1.00
837;DHT22;400;53.550;9.932;2024-02-26T02:30:20;6.30;1.00
837;DHT22;400;53.550;9.932;2024-02-26T02:32:48;6.30;1.00
837;DHT22;400;53.550;9.932;2024-02-26T02:35:15;6.20;1.00
837;DHT22;400;53.550;9.932;2024-02-26T02:37:43;6.20;1.00
837;DHT22;400;53.550;9.932;2024-02-26T02:40:10;6.20;1.00
837;DHT22;400;53.550;9.932;2024-02-26T02:42:37;6.20;1.00
837;DHT22;400;53.550;9.932;2024-02-26T02:45:05;6.20;1.00
837;DHT22;400;53.550;9.932;2024-02-26T02:47:32;6.20;1.00
837;DHT22;400;53.550;9.932;2024-02-26T02:50:02;6.10;1.00
837;DHT22;400;53.550;9.932;2024-02-26T02:52:29;6.10;1.00
837;DHT22;400;53.550;9.932;2024-02-26T02:54:57;6.10;1.00
837;DHT22;400;53.550;9.932;2024-02-26T02:57:24;6.10;1.00
837;DHT22;400;53.550;9.932;2024-02-26T02:59:51;6.00;1.00
837;DHT22;400;53.550;9.932;2024-02-26T03:02:18;6.10;1.00
837;DHT22;400;53.550;9.932;2024-02-26T03:04:45;6.10;1.00
837;DHT22;400;53.550;9.932;2024-02-26T03:07:12;6.10;1.00
837;DHT22;400;53.550;9.932;2024-02-26T03:09:39;6.10;1.00
837;DHT22;400;53.550;9.932;2024-02-26T03:12:08;6.10;1.00
837;DHT22;400;53.550;9.932;2024-02-26T03:14:35;6.00;1.00
837;DHT22;400;53.550;9.932;2024-02-26T03:17:02;6.00;1.00
837;DHT22;400;53.550;9.932;2024-02-26T03:19:29;6.00;1.00
837;DHT22;400;53.550;9.932;2024-02-26T03:21:56;6.00;1.00
837;DHT22;400;53.550;9.932;2024-02-26T03:24:23;6.00;1.00
837;DHT22;400;53.550;9.932;2024-02-26T03:26:49;5.90;1.00
837;DHT22;400;53.550;9.932;2024-02-26T03:29:18;5.90;1.00
837;DHT22;400;53.550;9.932;2024-02-26T03:31:45;5.80;1.00
837;DHT22;400;53.550;9.932;2024-02-26T03:34:12;5.80;1.00
837;DHT22;400;53.550;9.932;2024-02-26T03:36:40;5.90;1.00
837;DHT22;400;53.550;9.932;2024-02-26T03:39:07;5.90;1.00
837;DHT22;400;53.550;9.932;2024-02-26T03:41:34;5.90;1.00
837;DHT22;400;53.550;9.932;2024-02-26T03:44:02;5.90;1.00
837;DHT22;400;53.550;9.932;2024-02-26T03:46:32;5.90;1.00
837;DHT22;400;53.550;9.932;2024-02-26T03:48:59;5.80;1.00
837;DHT22;400;53.550;9.932;2024-02-26T03:51:26;5.80;1.00
837;DHT22;400;53.550;9.932;2024-02-26T03:53:56;5.90;1.00
837;DHT22;400;53.550;9.932;2024-02-26T03:56:23;5.80;1.00
837;DHT22;400;53.550;9.932;2024-02-26T03:58:50;5.80;1.00
837;DHT22;400;53.550;9.932;2024-02-26T04:01:17;5.80;1.00
837;DHT22;400;53.550;9.932;2024-02-26T04:03:45;5.80;1.00
837;DHT22;400;53.550;9.932;2024-02-26T04:06:12;5.80;1.00
837;DHT22;400;53.550;9.932;2024-02-26T04:08:40;5.80;1.00
837;DHT22;400;53.550;9.932;2024-02-26T04:11:07;5.80;1.00
837;DHT22;400;53.550;9.932;2024-02-26T04:13:35;5.80;1.00
837;DHT22;400;53.550;9.932;2024-02-26T04:16:04;5.80;1.00
837;DHT22;400;53.550;9.932;2024-02-26T04:18:31;5.80;1.00
837;DHT22;400;53.550;9.932;2024-02-26T04:20:59;5.70;1.00
837;DHT22;400;53.550;9.932;2024-02-26T04:23:26;5.70;1.00
837;DHT22;400;53.550;9.932;2024-02-26T04:25:53;5.70;1.00
837;DHT22;400;53.550;9.932;2024-02-26T04:28:19;5.70;1.00
837;DHT22;400;53.550;9.932;2024-02-26T04:30:47;5.70;1.00
837;DHT22;400;53.550;9.932;2024-02-26T04:33:14;5.70;1.00
837;DHT22;400;53.550;9.932;2024-02-26T04:35:42;5.70;1.00
837;DHT22;400;53.550;9.932;2024-02-26T04:38:13;5.80;1.00
837;DHT22;400;53.550;9.932;2024-02-26T04:40:46;5.70;1.00
837;DHT22;400;53.550;9.932;2024-02-26T04:43:19;5.70;1.00
837;DHT22;400;53.550;9.932;2024-02-26T04:45:46;5.80;1.00
837;DHT22;400;53.550;9.932;2024-02-26T04:48:13;5.80;1.00
837;DHT22;400;53.550;9.932;2024-02-26T04:50:40;5.80;1.00
837;DHT22;400;53.550;9.932;2024-02-26T04:53:08;5.80;1.00
837;DHT22;400;53.550;9.932;2024-02-26T04:55:36;5.80;1.00
837;DHT22;400;53.550;9.932;2024-02-26T04:58:03;5.80;1.00
837;DHT22;400;53.550;9.932;2024-02-26T05:00:30;5.80;1.00
837;DHT22;400;53.550;9.932;2024-02-26T05:02:56;5.80;1.00
837;DHT22;400;53.550;9.932;2024-02-26T05:05:23;5.80;1.00
837;DHT22;400;53.550;9.932;2024-02-26T05:07:50;5.80;1.00
837;DHT22;400;53.550;9.932;2024-02-26T05:10:17;5.80;1.00
837;DHT22;400;53.550;9.932;2024-02-26T05:12:46;5.80;1.00
837;DHT22;400;53.550;9.932;2024-02-26T05:15:13;5.70;1.00
837;DHT22;400;53.550;9.932;2024-02-26T05:17:44;5.70;1.00
837;DHT22;400;53.550;9.932;2024-02-26T05:20:11;5.70;1.00
837;DHT22;400;53.550;9.932;2024-02-26T05:22:37;5.70;1.00
837;DHT22;400;53.550;9.932;2024-02-26T05:25:05;5.70;1.00
837;DHT22;400;53.550;9.932;2024-02-26T05:27:32;5.70;1.00
837;DHT22;400;53.550;9.932;2024-02-26T05:30:00;5.60;1.00
837;DHT22;400;53.550;9.932;2024-02-26T05:32:27;5.70;1.00
837;DHT22;400;53.550;9.932;2024-02-26T05:34:54;5.60;1.00
837;DHT22;400;53.550;9.932;2024-02-26T05:37:21;5.60;1.00
837;DHT22;400;53.550;9.932;2024-02-26T05:39:50;5.50;1.00
837;DHT22;400;53.550;9.932;2024-02-26T05:42:17;5.50;1.00
837;DHT22;400;53.550;9.932;2024-02-26T05:44:44;5.50;1.00
837;DHT22;400;53.550;9.932;2024-02-26T05:47:12;5.50;1.00
837;DHT22;400;53.550;9.932;2024-02-26T05:49:40;5.40;1.00
837;DHT22;400;53.550;9.932;2024-02-26T05:52:12;5.40;1.00
837;DHT22;400;53.550;9.932;2024-02-26T05:54:41;5.30;1.00
837;DHT22;400;53.550;9.932;2024-02-26T05:57:11;5.30;1.00
837;DHT22;400;53.550;9.932;2024-02-26T05:59:38;5.30;1.00
837;DHT22;400;53.550;9.932;2024-02-26T06:02:07;5.30;1.00
837;DHT22;400;53.550;9.932;2024-02-26T06:04:36;5.30;1.00
837;DHT22;400;53.550;9.932;2024-02-26T06:07:06;5.20;1.00
837;DHT22;400;53.550;9.932;2024-02-26T06:09:34;5.20;1.00
837;DHT22;400;53.550;9.932;2024-02-26T06:12:03;5.20;1.00
837;DHT22;400;53.550;9.932;2024-02-26T06:14:30;5.20;1.00
837;DHT22;400;53.550;9.932;2024-02-26T06:16:57;5.20;1.00
837;DHT22;400;53.550;9.932;2024-02-26T06:19:24;5.10;1.00
837;DHT22;400;53.550;9.932;2024-02-26T06:21:53;5.20;1.00
837;DHT22;400;53.550;9.932;2024-02-26T06:24:20;5.10;1.00
837;DHT22;400;53.550;9.932;2024-02-26T06:26:51;5.10;1.00
837;DHT22;400;53.550;9.932;2024-02-26T06:29:18;5.10;1.00
837;DHT22;400;53.550;9.932;2024-02-26T06:31:48;5.10;1.00
837;DHT22;400;53.550;9.932;2024-02-26T06:34:21;5.10;1.00
837;DHT22;400;53.550;9.932;2024-02-26T06:36:52;5.10;1.00
837;DHT22;400;53.550;9.932;2024-02-26T06:39:19;5.00;1.00
837;DHT22;400;53.550;9.932;2024-02-26T06:41:51;5.00;1.00
837;DHT22;400;53.550;9.932;2024-02-26T06:44:28;5.00;1.00
837;DHT22;400;53.550;9.932;2024-02-26T06:47:09;5.00;1.00
837;DHT22;400;53.550;9.932;2024-02-26T06:49:52;5.00;1.00
837;DHT22;400;53.550;9.932;2024-02-26T06:52:44;4.90;1.00
837;DHT22;400;53.550;9.932;2024-02-26T06:55:17;5.00;1.00
837;DHT22;400;53.550;9.932;2024-02-26T06:57:44;4.90;1.00
837;DHT22;400;53.550;9.932;2024-02-26T07:00:12;4.90;1.00
837;DHT22;400;53.550;9.932;2024-02-26T07:02:40;4.90;1.00
837;DHT22;400;53.550;9.932;2024-02-26T07:05:11;4.90;1.00
837;DHT22;400;53.550;9.932;2024-02-26T07:07:39;4.90;1.00
837;DHT22;400;53.550;9.932;2024-02-26T07:10:09;4.90;1.00
837;DHT22;400;53.550;9.932;2024-02-26T07:12:48;5.00;1.00
837;DHT22;400;53.550;9.932;2024-02-26T07:15:17;5.00;1.00
837;DHT22;400;53.550;9.932;2024-02-26T07:17:44;5.00;1.00
837;DHT22;400;53.550;9.932;2024-02-26T07:20:21;5.10;1.00
837;DHT22;400;53.550;9.932;2024-02-26T07:22:49;5.10;1.00
837;DHT22;400;53.550;9.932;2024-02-26T07:25:19;5.10;1.00
837;DHT22;400;53.550;9.932;2024-02-26T07:27:49;5.10;1.00
837;DHT22;400;53.550;9.932;2024-02-26T07:30:20;5.10;1.00
837;DHT22;400;53.550;9.932;2024-02-26T07:32:47;5.00;1.00
837;DHT22;400;53.550;9.932;2024-02-26T07:35:17;5.10;1.00
837;DHT22;400;53.550;9.932;2024-02-26T07:37:49;5.10;1.00
837;DHT22;400;53.550;9.932;2024-02-26T07:40:16;5.10;1.00
837;DHT22;400;53.550;9.932;2024-02-26T07:42:43;5.10;1.00
837;DHT22;400;53.550;9.932;2024-02-26T07:45:12;5.20;1.00
837;DHT22;400;53.550;9.932;2024-02-26T07:47:41;5.20;1.00
837;DHT22;400;53.550;9.932;2024-02-26T07:50:11;5.20;1.00
837;DHT22;400;53.550;9.932;2024-02-26T07:52:39;5.30;1.00
837;DHT22;400;53.550;9.932;2024-02-26T07:55:08;5.30;1.00
837;DHT22;400;53.550;9.932;2024-02-26T07:57:37;5.40;1.00
837;DHT22;400;53.550;9.932;2024-02-26T08:00:05;5.30;1.00
837;DHT22;400;53.550;9.932;2024-02-26T08:02:38;5.30;1.00
837;DHT22;400;53.550;9.932;2024-02-26T08:05:08;5.30;1.00
837;DHT22;400;53.550;9.932;2024-02-26T08:07:39;5.40;1.00
837;DHT22;400;53.550;9.932;2024-02-26T08:10:09;5.30;1.00
837;DHT22;400;53.550;9.932;2024-02-26T08:12:37;5.30;1.00
837;DHT22;400;53.550;9.932;2024-02-26T08:15:08;5.30;1.00
837;DHT22;400;53.550;9.932;2024-02-26T08:17:39;5.40;1.00
837;DHT22;400;53.550;9.932;2024-02-26T08:20:09;5.40;1.00
837;DHT22;400;53.550;9.932;2024-02-26T08:22:47;5.40;1.00
837;DHT22;400;53.550;9.932;2024-02-26T08:25:22;5.40;1.00
837;DHT22;400;53.550;9.932;2024-02-26T08:27:52;5.50;1.00
837;DHT22;400;53.550;9.932;2024-02-26T08:30:19;5.50;1.00
837;DHT22;400;53.550;9.932;2024-02-26T08:32:47;5.50;1.00
837;DHT22;400;53.550;9.932;2024-02-26T08:35:15;5.50;1.00
837;DHT22;400;53.550;9.932;2024-02-26T08:37:44;5.50;1.00
837;DHT22;400;53.550;9.932;2024-02-26T08:40:11;5.50;1.00
837;DHT22;400;53.550;9.932;2024-02-26T08:42:39;5.50;1.00
837;DHT22;400;53.550;9.932;2024-02-26T08:45:07;5.50;1.00
837;DHT22;400;53.550;9.932;2024-02-26T08:47:36;5.60;1.00
837;DHT22;400;53.550;9.932;2024-02-26T08:50:06;5.60;1.00
837;DHT22;400;53.550;9.932;2024-02-26T08:52:38;5.70;1.00
837;DHT22;400;53.550;9.932;2024-02-26T08:55:05;5.70;1.00
837;DHT22;400;53.550;9.932;2024-02-26T08:57:32;5.70;1.00
837;DHT22;400;53.550;9.932;2024-02-26T09:00:00;5.70;1.00
837;DHT22;400;53.550;9.932;2024-02-26T09:02:29;5.80;1.00
837;DHT22;400;53.550;9.932;2024-02-26T09:04:56;5.80;1.00
837;DHT22;400;53.550;9.932;2024-02-26T09:07:24;5.70;1.00
837;DHT22;400;53.550;9.932;2024-02-26T09:09:51;5.70;1.00
837;DHT22;400;53.550;9.932;2024-02-26T09:12:18;5.60;1.00
837;DHT22;400;53.550;9.932;2024-02-26T09:14:45;5.60;1.00
837;DHT22;400;53.550;9.932;2024-02-26T09:17:13;5.60;1.00
837;DHT22;400;53.550;9.932;2024-02-26T09:19:40;5.70;1.00
837;DHT22;400;53.550;9.932;2024-02-26T09:22:07;5.70;1.00
837;DHT22;400;53.550;9.932;2024-02-26T09:24:34;5.80;1.00
837;DHT22;400;53.550;9.932;2024-02-26T09:27:01;5.80;1.00
837;DHT22;400;53.550;9.932;2024-02-26T09:29:29;5.90;1.00
837;DHT22;400;53.550;9.932;2024-02-26T09:31:59;6.00;1.00
837;DHT22;400;53.550;9.932;2024-02-26T09:34:34;6.00;1.00
837;DHT22;400;53.550;9.932;2024-02-26T09:37:04;6.10;1.00
837;DHT22;400;53.550;9.932;2024-02-26T09:39:32;6.10;1.00
837;DHT22;400;53.550;9.932;2024-02-26T09:42:00;6.10;1.00
837;DHT22;400;53.550;9.932;2024-02-26T09:44:34;6.20;1.00
837;DHT22;400;53.550;9.932;2024-02-26T09:47:07;6.20;1.00
837;DHT22;400;53.550;9.932;2024-02-26T09:49:39;6.20;1.00
837;DHT22;400;53.550;9.932;2024-02-26T09:52:08;6.20;1.00
837;DHT22;400;53.550;9.932;2024-02-26T09:54:38;6.20;1.00
837;DHT22;400;53.550;9.932;2024-02-26T09:57:11;6.30;1.00
837;DHT22;400;53.550;9.932;2024-02-26T09:59:43;6.20;1.00
837;DHT22;400;53.550;9.932;2024-02-26T10:02:12;6.30;1.00
837;DHT22;400;53.550;9.932;2024-02-26T10:04:48;6.30;1.00
837;DHT22;400;53.550;9.932;2024-02-26T10:07:20;6.30;1.00
837;DHT22;400;53.550;9.932;2024-02-26T10:09:47;6.20;1.00
837;DHT22;400;53.550;9.932;2024-02-26T10:12:16;6.30;1.00
837;DHT22;400;53.550;9.932;2024-02-26T10:14:44;6.30;1.00
837;DHT22;400;53.550;9.932;2024-02-26T10:17:13;6.30;1.00
837;DHT22;400;53.550;9.932;2024-02-26T10:20:14;6.30;1.00
837;DHT22;400;53.550;9.932;2024-02-26T10:22:47;6.40;1.00
837;DHT22;400;53.550;9.932;2024-02-26T10:25:14;6.40;1.00
837;DHT22;400;53.550;9.932;2024-02-26T10:27:41;6.50;1.00
837;DHT22;400;53.550;9.932;2024-02-26T10:30:20;6.50;1.00
837;DHT22;400;53.550;9.932;2024-02-26T10:32:54;6.50;1.00
837;DHT22;400;53.550;9.932;2024-02-26T10:35:24;6.60;1.00
837;DHT22;400;53.550;9.932;2024-02-26T10:37:54;6.60;1.00
837;DHT22;400;53.550;9.932;2024-02-26T10:40:21;6.60;1.00
837;DHT22;400;53.550;9.932;2024-02-26T10:42:53;6.60;1.00
837;DHT22;400;53.550;9.932;2024-02-26T10:45:27;6.60;1.00
837;DHT22;400;53.550;9.932;2024-02-26T10:47:56;6.60;1.00
837;DHT22;400;53.550;9.932;2024-02-26T10:50:24;6.70;1.00
837;DHT22;400;53.550;9.932;2024-02-26T10:52:52;6.70;1.00
837;DHT22;400;53.550;9.932;2024-02-26T10:55:22;6.70;1.00
837;DHT22;400;53.550;9.932;2024-02-26T10:57:52;6.70;1.00
837;DHT22;400;53.550;9.932;2024-02-26T11:00:19;6.80;1.00
837;DHT22;400;53.550;9.932;2024-02-26T11:02:46;6.80;1.00
837;DHT22;400;53.550;9.932;2024-02-26T11:05:15;6.80;1.00
837;DHT22;400;53.550;9.932;2024-02-26T11:07:44;6.90;1.00
837;DHT22;400;53.550;9.932;2024-02-26T11:10:13;7.00;1.00
837;DHT22;400;53.550;9.932;2024-02-26T11:12:41;7.00;1.00
837;DHT22;400;53.550;9.932;2024-02-26T11:15:09;7.10;1.00
837;DHT22;400;53.550;9.932;2024-02-26T11:17:37;7.10;1.00
837;DHT22;400;53.550;9.932;2024-02-26T11:20:10;7.10;1.00
837;DHT22;400;53.550;9.932;2024-02-26T11:22:39;7.20;1.00
837;DHT22;400;53.550;9.932;2024-02-26T11:25:10;7.20;1.00
837;DHT22;400;53.550;9.932;2024-02-26T11:27:41;7.30;1.00
837;DHT22;400;53.550;9.932;2024-02-26T11:30:10;7.30;1.00
837;DHT22;400;53.550;9.932;2024-02-26T11:32:37;7.30;1.00
837;DHT22;400;53.550;9.932;2024-02-26T11:35:05;7.30;1.00
837;DHT22;400;53.550;9.932;2024-02-26T11:37:33;7.30;1.00
837;DHT22;400;53.550;9.932;2024-02-26T11:40:00;7.30;1.00
837;DHT22;400;53.550;9.932;2024-02-26T11:42:31;7.40;1.00
837;DHT22;400;53.550;9.932;2024-02-26T11:44:58;7.30;1.00
837;DHT22;400;53.550;9.932;2024-02-26T11:47:27;7.40;1.00
837;DHT22;400;53.550;9.932;2024-02-26T11:49:54;7.40;1.00
837;DHT22;400;53.550;9.932;2024-02-26T11:52:23;7.50;1.00
837;DHT22;400;53.550;9.932;2024-02-26T11:54:54;7.60;1.00
837;DHT22;400;53.550;9.932;2024-02-26T11:57:30;7.60;1.00
837;DHT22;400;53.550;9.932;2024-02-26T12:00:12;7.50;1.00
837;DHT22;400;53.550;9.932;2024-02-26T12:02:45;7.50;1.00
837;DHT22;400;53.550;9.932;2024-02-26T12:05:13;7.60;1.00
837;DHT22;400;53.550;9.932;2024-02-26T12:07:43;7.60;1.00
837;DHT22;400;53.550;9.932;2024-02-26T12:10:16;7.70;1.00
837;DHT22;400;53.550;9.932;2024-02-26T12:12:45;7.70;1.00
837;DHT22;400;53.550;9.932;2024-02-26T12:15:15;7.80;1.00
837;DHT22;400;53.550;9.932;2024-02-26T12:17:48;7.80;1.00
837;DHT22;400;53.550;9.932;2024-02-26T12:20:17;7.90;1.00
837;DHT22;400;53.550;9.932;2024-02-26T12:22:46;7.90;1.00
837;DHT22;400;53.550;9.932;2024-02-26T12:25:16;7.90;1.00
837;DHT22;400;53.550;9.932;2024-02-26T12:27:44;7.90;1.00
837;DHT22;400;53.550;9.932;2024-02-26T12:30:12;8.00;1.00
837;DHT22;400;53.550;9.932;2024-02-26T12:32:39;8.00;1.00
837;DHT22;400;53.550;9.932;2024-02-26T12:35:06;7.90;1.00
837;DHT22;400;53.550;9.932;2024-02-26T12:37:34;8.00;1.00
837;DHT22;400;53.550;9.932;2024-02-26T12:40:10;8.10;1.00
837;DHT22;400;53.550;9.932;2024-02-26T12:42:57;8.10;1.00
837;DHT22;400;53.550;9.932;2024-02-26T12:45:43;8.20;1.00
837;DHT22;400;53.550;9.932;2024-02-26T12:48:13;8.30;1.00
837;DHT22;400;53.550;9.932;2024-02-26T12:50:40;8.30;1.00
837;DHT22;400;53.550;9.932;2024-02-26T12:53:12;8.20;1.00
837;DHT22;400;53.550;9.932;2024-02-26T12:55:42;8.30;1.00
837;DHT22;400;53.550;9.932;2024-02-26T12:58:11;8.30;1.00
837;DHT22;400;53.550;9.932;2024-02-26T13:00:39;8.30;1.00
837;DHT22;400;53.550;9.932;2024-02-26T13:03:11;8.30;1.00
837;DHT22;400;53.550;9.932;2024-02-26T13:05:41;8.20;1.00
837;DHT22;400;53.550;9.932;2024-02-26T13:08:17;8.20;1.00
837;DHT22;400;53.550;9.932;2024-02-26T13:10:46;8.30;1.00
837;DHT22;400;53.550;9.932;2024-02-26T13:13:15;8.30;1.00
837;DHT22;400;53.550;9.932;2024-02-26T13:15:45;8.30;1.00
837;DHT22;400;53.550;9.932;2024-02-26T13:18:13;8.30;1.00
837;DHT22;400;53.550;9.932;2024-02-26T13:20:41;8.20;1.00
837;DHT22;400;53.550;9.932;2024-02-26T13:23:12;8.20;1.00
837;DHT22;400;53.550;9.932;2024-02-26T13:25:39;8.10;1.00
837;DHT22;400;53.550;9.932;2024-02-26T13:28:13;8.20;1.00
837;DHT22;400;53.550;9.932;2024-02-26T13:30:50;8.20;1.00
837;DHT22;400;53.550;9.932;2024-02-26T13:33:17;8.10;1.00
837;DHT22;400;53.550;9.932;2024-02-26T13:35:44;8.10;1.00
837;DHT22;400;53.550;9.932;2024-02-26T13:38:12;8.20;1.00
837;DHT22;400;53.550;9.932;2024-02-26T13:40:42;8.10;1.00
837;DHT22;400;53.550;9.932;2024-02-26T13:43:16;8.20;1.00
837;DHT22;400;53.550;9.932;2024-02-26T13:45:47;8.10;1.00
837;DHT22;400;53.550;9.932;2024-02-26T13:48:14;8.10;1.00
837;DHT22;400;53.550;9.932;2024-02-26T13:50:42;8.10;1.00
837;DHT22;400;53.550;9.932;2024-02-26T13:53:12;8.20;1.00
837;DHT22;400;53.550;9.932;2024-02-26T13:55:41;8.10;1.00
837;DHT22;400;53.550;9.932;2024-02-26T13:58:12;8.10;1.00
837;DHT22;400;53.550;9.932;2024-02-26T14:00:41;8.10;1.00
837;DHT22;400;53.550;9.932;2024-02-26T14:03:13;8.10;1.00
837;DHT22;400;53.550;9.932;2024-02-26T14:05:44;8.10;1.00
837;DHT22;400;53.550;9.932;2024-02-26T14:08:17;8.20;1.00
837;DHT22;400;53.550;9.932;2024-02-26T14:10:46;8.20;1.00
837;DHT22;400;53.550;9.932;2024-02-26T14:13:15;8.30;1.00
837;DHT22;400;53.550;9.932;2024-02-26T14:15:46;8.20;1.00
837;DHT22;400;53.550;9.932;2024-02-26T14:18:15;8.20;1.00
837;DHT22;400;53.550;9.932;2024-02-26T14:20:43;8.20;1.00
837;DHT22;400;53.550;9.932;2024-02-26T14:23:14;8.20;1.00
837;DHT22;400;53.550;9.932;2024-02-26T14:25:41;8.30;1.00
837;DHT22;400;53.550;9.932;2024-02-26T14:28:08;8.30;1.00
837;DHT22;400;53.550;9.932;2024-02-26T14:30:35;8.30;1.00
837;DHT22;400;53.550;9.932;2024-02-26T14:33:05;8.20;1.00
837;DHT22;400;53.550;9.932;2024-02-26T14:35:41;8.20;1.00
837;DHT22;400;53.550;9.932;2024-02-26T14:38:19;8.20;1.00
837;DHT22;400;53.550;9.932;2024-02-26T14:40:57;8.20;1.00
837;DHT22;400;53.550;9.932;2024-02-26T14:43:30;8.20;1.00
837;DHT22;400;53.550;9.932;2024-02-26T14:45:59;8.30;1.00
837;DHT22;400;53.550;9.932;2024-02-26T14:48:41;8.20;1.00
837;DHT22;400;53.550;9.932;2024-02-26T14:51:21;8.20;1.00
837;DHT22;400;53.550;9.932;2024-02-26T14:53:55;8.20;1.00
837;DHT22;400;53.550;9.932;2024-02-26T14:56:30;8.20;1.00
837;DHT22;400;53.550;9.932;2024-02-26T14:58:59;8.10;1.00
837;DHT22;400;53.550;9.932;2024-02-26T15:01:27;8.00;1.00
837;DHT22;400;53.550;9.932;2024-02-26T15:03:56;8.00;1.00
837;DHT22;400;53.550;9.932;2024-02-26T15:06:26;8.00;1.00
837;DHT22;400;53.550;9.932;2024-02-26T15:08:52;8.00;1.00
837;DHT22;400;53.550;9.932;2024-02-26T15:11:19;7.90;1.00
837;DHT22;400;53.550;9.932;2024-02-26T15:13:46;7.80;1.00
837;DHT22;400;53.550;9.932;2024-02-26T15:16:17;7.80;1.00
837;DHT22;400;53.550;9.932;2024-02-26T15:18:46;7.80;1.00
837;DHT22;400;53.550;9.932;2024-02-26T15:21:13;7.80;1.00
837;DHT22;400;53.550;9.932;2024-02-26T15:23:43;7.80;1.00
837;DHT22;400;53.550;9.932;2024-02-26T15:26:11;7.80;1.00
837;DHT22;400;53.550;9.932;2024-02-26T15:28:39;7.80;1.00
837;DHT22;400;53.550;9.932;2024-02-26T15:31:09;7.80;1.00
837;DHT22;400;53.550;9.932;2024-02-26T15:33:39;7.80;1.00
837;DHT22;400;53.550;9.932;2024-02-26T15:36:10;7.80;1.00
837;DHT22;400;53.550;9.932;2024-02-26T15:38:42;7.80;1.00
837;DHT22;400;53.550;9.932;2024-02-26T15:41:12;7.80;1.00
837;DHT22;400;53.550;9.932;2024-02-26T15:43:40;7.80;1.00
837;DHT22;400;53.550;9.932;2024-02-26T15:46:07;7.80;1.00
837;DHT22;400;53.550;9.932;2024-02-26T15:48:35;7.70;1.00
837;DHT22;400;53.550;9.932;2024-02-26T15:51:03;7.70;1.00
837;DHT22;400;53.550;9.932;2024-02-26T15:53:30;7.70;1.00
837;DHT22;400;53.550;9.932;2024-02-26T15:55:58;7.70;1.00
837;DHT22;400;53.550;9.932;2024-02-26T15:58:25;7.60;1.00
837;DHT22;400;53.550;9.932;2024-02-26T16:00:52;7.60;1.00
837;DHT22;400;53.550;9.932;2024-02-26T16:03:22;7.50;1.00
837;DHT22;400;53.550;9.932;2024-02-26T16:05:51;7.50;1.00
837;DHT22;400;53.550;9.932;2024-02-26T16:08:21;7.40;1.00
837;DHT22;400;53.550;9.932;2024-02-26T16:10:49;7.40;1.00
837;DHT22;400;53.550;9.932;2024-02-26T16:13:18;7.40;1.00
837;DHT22;400;53.550;9.932;2024-02-26T16:15:50;7.40;1.00
837;DHT22;400;53.550;9.932;2024-02-26T16:18:30;7.40;1.00
837;DHT22;400;53.550;9.932;2024-02-26T16:21:02;7.50;1.00
837;DHT22;400;53.550;9.932;2024-02-26T16:23:32;7.50;1.00
837;DHT22;400;53.550;9.932;2024-02-26T16:26:00;7.50;1.00
837;DHT22;400;53.550;9.932;2024-02-26T16:28:31;7.40;1.00
837;DHT22;400;53.550;9.932;2024-02-26T16:31:02;7.30;1.00
837;DHT22;400;53.550;9.932;2024-02-26T16:33:29;7.30;1.00
837;DHT22;400;53.550;9.932;2024-02-26T16:35:57;7.30;1.00
837;DHT22;400;53.550;9.932;2024-02-26T16:38:27;7.30;1.00
837;DHT22;400;53.550;9.932;2024-02-26T16:40:56;7.20;1.00
837;DHT22;400;53.550;9.932;2024-02-26T16:43:30;7.00;1.00
837;DHT22;400;53.550;9.932;2024-02-26T16:46:09;7.00;1.00
837;DHT22;400;53.550;9.932;2024-02-26T16:48:48;6.90;1.00
837;DHT22;400;53.550;9.932;2024-02-26T16:51:21;6.90;1.00
837;DHT22;400;53.550;9.932;2024-02-26T16:53:58;6.80;1.00
837;DHT22;400;53.550;9.932;2024-02-26T16:56:46;6.70;1.00
837;DHT22;400;53.550;9.932;2024-02-26T16:59:15;6.60;1.00
837;DHT22;400;53.550;9.932;2024-02-26T17:01:44;6.60;1.00
837;DHT22;400;53.550;9.932;2024-02-26T17:04:16;6.60;1.00
837;DHT22;400;53.550;9.932;2024-02-26T17:06:48;6.60;1.00
837;DHT22;400;53.550;9.932;2024-02-26T17:09:18;6.70;1.00
837;DHT22;400;53.550;9.932;2024-02-26T17:11:48;6.70;1.00
837;DHT22;400;53.550;9.932;2024-02-26T17:14:21;6.70;1.00
837;DHT22;400;53.550;9.932;2024-02-26T17:16:54;6.70;1.00
837;DHT22;400;53.550;9.932;2024-02-26T17:19:22;6.70;1.00
837;DHT22;400;53.550;9.932;2024-02-26T17:21:49;6.60;1.00